Time;durP1;ratioP1;P1;durP2;ratioP2;P2;SDS_P1;SDS_P2;PMS_P1;PMS_P2;Temp;Humidity;BMP_temperature;BMP_pressure;BME280_temperature;BME280_humidity;BME280_pressure;Samples;Min_cycle;Max_cycle;Signal;HPM_P1;HPM_P2
2021/06/26 00:00:53;0.00;0.00;0.62;0.00;0.00;0.62;;;;;25.80;60.70;;;;;;2262683;61;804;-68
2021/06/26 00:03:22;0.00;0.00;0.62;0.00;0.00;0.62;;;;;25.90;60.60;;;;;;2263130;61;880;-68
2021/06/26 00:05:48;0.00;0.00;0.62;0.00;0.00;0.62;;;;;25.90;60.70;;;;;;2262693;61;1026;-67
2021/06/26 00:08:14;0.00;0.00;0.62;0.00;0.00;0.62;;;;;25.80;60.60;;;;;;2263166;61;996;-67
2021/06/26 00:10:41;0.00;0.00;0.62;0.00;0.00;0.62;;;;;25.80;60.70;;;;;;2262462;61;992;-68
2021/06/26 00:13:06;0.00;0.00;0.62;0.00;0.00;0.62;;;;;25.80;60.70;;;;;;2262956;61;2002;-68
2021/06/26 00:15:32;0.00;0.00;0.62;0.00;0.00;0.62;;;;;25.80;60.70;;;;;;2263187;61;915;-68
2021/06/26 00:17:57;0.00;0.00;0.62;0.00;0.00;0.62;;;;;25.80;60.70;;;;;;2262957;61;1007;-67
2021/06/26 00:20:23;0.00;0.00;0.62;0.00;0.00;0.62;;;;;25.80;60.70;;;;;;2263274;61;940;-68
2021/06/26 00:22:48;23625.00;0.08;41.55;0.00;0.00;0.62;;;;;25.90;60.60;;;;;;2263376;61;981;-67
2021/06/26 00:25:14;0.00;0.00;0.62;0.00;0.00;0.62;;;;;25.80;60.70;;;;;;2262947;61;1235;-68
2021/06/26 00:27:40;0.00;0.00;0.62;0.00;0.00;0.62;;;;;25.80;60.70;;;;;;2263030;61;915;-68
2021/06/26 00:30:06;0.00;0.00;0.62;0.00;0.00;0.62;;;;;25.80;60.60;;;;;;2263011;61;927;-68
2021/06/26 00:32:32;0.00;0.00;0.62;0.00;0.00;0.62;;;;;25.80;60.70;;;;;;2263088;61;1014;-68
2021/06/26 00:34:57;0.00;0.00;0.62;0.00;0.00;0.62;;;;;25.80;60.70;;;;;;2263213;61;1956;-67
2021/06/26 00:37:23;0.00;0.00;0.62;0.00;0.00;0.62;;;;;25.80;60.70;;;;;;2263020;61;851;-67
2021/06/26 00:39:49;0.00;0.00;0.62;0.00;0.00;0.62;;;;;25.80;60.70;;;;;;2263085;61;847;-68
2021/06/26 00:42:14;0.00;0.00;0.62;0.00;0.00;0.62;;;;;25.80;60.70;;;;;;2262911;61;1045;-67
2021/06/26 00:44:40;0.00;0.00;0.62;0.00;0.00;0.62;;;;;25.80;60.60;;;;;;2263031;61;831;-67
2021/06/26 00:47:11;11919.00;0.04;21.27;0.00;0.00;0.62;;;;;25.80;60.60;;;;;;2263030;61;917;-68
2021/06/26 00:49:40;0.00;0.00;0.62;0.00;0.00;0.62;;;;;25.80;60.70;;;;;;2263190;61;903;-68
2021/06/26 00:52:06;0.00;0.00;0.62;0.00;0.00;0.62;;;;;25.80;60.60;;;;;;2263051;61;887;-68
2021/06/26 00:54:33;26221.00;0.09;46.04;0.00;0.00;0.62;;;;;25.80;60.70;;;;;;2262443;61;2017;-68
2021/06/26 00:56:59;0.00;0.00;0.62;0.00;0.00;0.62;;;;;25.80;60.60;;;;;;2263013;61;1001;-68
2021/06/26 00:59:24;0.00;0.00;0.62;0.00;0.00;0.62;;;;;25.80;60.60;;;;;;2263133;61;1020;-68
2021/06/26 01:01:50;0.00;0.00;0.62;0.00;0.00;0.62;;;;;25.80;60.60;;;;;;2262544;61;848;-68
2021/06/26 01:04:16;0.00;0.00;0.62;0.00;0.00;0.62;;;;;25.80;60.70;;;;;;2263128;61;891;-68
2021/06/26 01:06:41;0.00;0.00;0.62;0.00;0.00;0.62;;;;;25.80;60.60;;;;;;2262344;61;892;-68
2021/06/26 01:09:07;0.00;0.00;0.62;0.00;0.00;0.62;;;;;25.80;60.50;;;;;;2262776;61;979;-67
2021/06/26 01:11:33;0.00;0.00;0.62;0.00;0.00;0.62;;;;;25.80;60.60;;;;;;2262375;61;989;-68
2021/06/26 01:13:58;0.00;0.00;0.62;0.00;0.00;0.62;;;;;25.80;60.60;;;;;;2262244;61;1943;-68
2021/06/26 01:16:25;0.00;0.00;0.62;0.00;0.00;0.62;;;;;25.80;60.70;;;;;;2262321;61;1061;-68
2021/06/26 01:18:51;0.00;0.00;0.62;0.00;0.00;0.62;;;;;25.80;60.60;;;;;;2262831;61;1077;-67
2021/06/26 01:21:17;0.00;0.00;0.62;0.00;0.00;0.62;;;;;25.80;60.60;;;;;;2263004;61;1138;-67
2021/06/26 01:23:47;0.00;0.00;0.62;0.00;0.00;0.62;;;;;25.80;60.70;;;;;;2262868;61;910;-67
2021/06/26 01:26:13;0.00;0.00;0.62;0.00;0.00;0.62;;;;;25.80;60.60;;;;;;2263120;61;929;-68
2021/06/26 01:28:39;0.00;0.00;0.62;0.00;0.00;0.62;;;;;25.80;60.60;;;;;;2262464;61;909;-67
2021/06/26 01:31:05;0.00;0.00;0.62;0.00;0.00;0.62;;;;;25.80;60.60;;;;;;2262733;61;907;-67
2021/06/26 01:33:31;0.00;0.00;0.62;0.00;0.00;0.62;;;;;25.80;60.60;;;;;;2262772;61;2017;-67
2021/06/26 01:35:56;0.00;0.00;0.62;0.00;0.00;0.62;;;;;25.80;60.60;;;;;;2262681;61;1006;-67
2021/06/26 01:38:22;0.00;0.00;0.62;0.00;0.00;0.62;;;;;25.80;60.70;;;;;;2263327;61;932;-67
2021/06/26 01:40:48;333774.00;1.11;575.97;219943.00;0.73;380.25;;;;;25.80;60.60;;;;;;2263650;61;987;-68
2021/06/26 01:43:13;0.00;0.00;0.62;0.00;0.00;0.62;;;;;25.80;60.60;;;;;;2259496;61;1534;-67
2021/06/26 01:45:40;0.00;0.00;0.62;0.00;0.00;0.62;;;;;25.80;60.60;;;;;;2263494;61;967;-67
2021/06/26 01:48:06;0.00;0.00;0.62;0.00;0.00;0.62;;;;;25.80;60.60;;;;;;2263555;61;984;-67
2021/06/26 01:50:32;0.00;0.00;0.62;0.00;0.00;0.62;;;;;25.80;60.60;;;;;;2263323;61;872;-67
2021/06/26 01:52:59;0.00;0.00;0.62;0.00;0.00;0.62;;;;;25.80;60.60;;;;;;2263402;61;986;-67
2021/06/26 01:55:24;0.00;0.00;0.62;0.00;0.00;0.62;;;;;25.80;60.60;;;;;;2259658;61;1882;-67
2021/06/26 01:57:50;0.00;0.00;0.62;0.00;0.00;0.62;;;;;25.80;60.60;;;;;;2263481;61;997;-67
2021/06/26 02:00:17;0.00;0.00;0.62;0.00;0.00;0.62;;;;;25.80;60.50;;;;;;2263519;61;1033;-67
2021/06/26 02:02:42;30700.00;0.10;53.79;0.00;0.00;0.62;;;;;25.80;60.60;;;;;;2263608;61;1151;-67
2021/06/26 02:05:09;0.00;0.00;0.62;0.00;0.00;0.62;;;;;25.80;60.60;;;;;;2259202;61;1844;-67
2021/06/26 02:07:35;9179.00;0.03;16.53;0.00;0.00;0.62;;;;;25.80;60.60;;;;;;2259414;61;844;-67
2021/06/26 02:10:00;0.00;0.00;0.62;0.00;0.00;0.62;;;;;25.80;60.60;;;;;;2263520;61;1023;-67
2021/06/26 02:12:26;0.00;0.00;0.62;0.00;0.00;0.62;;;;;25.80;60.60;;;;;;2262998;61;834;-67
2021/06/26 02:14:53;0.00;0.00;0.62;0.00;0.00;0.62;;;;;25.80;60.60;;;;;;2263100;61;2012;-67
2021/06/26 02:17:20;0.00;0.00;0.62;0.00;0.00;0.62;;;;;25.80;60.60;;;;;;2263338;61;1352;-67
2021/06/26 02:19:46;0.00;0.00;0.62;0.00;0.00;0.62;;;;;25.80;60.60;;;;;;2263533;61;803;-67
2021/06/26 02:22:12;0.00;0.00;0.62;0.00;0.00;0.62;;;;;25.80;60.60;;;;;;2263542;61;931;-68
2021/06/26 02:24:37;0.00;0.00;0.62;0.00;0.00;0.62;;;;;25.70;60.60;;;;;;2263655;61;960;-67
2021/06/26 02:27:03;0.00;0.00;0.62;0.00;0.00;0.62;;;;;25.70;60.60;;;;;;2263364;61;823;-67
2021/06/26 02:29:29;0.00;0.00;0.62;0.00;0.00;0.62;;;;;25.70;60.60;;;;;;2263345;61;1038;-68
2021/06/26 02:31:54;0.00;0.00;0.62;0.00;0.00;0.62;;;;;25.80;60.60;;;;;;2263599;61;911;-67
2021/06/26 02:34:20;42767.00;0.14;74.68;0.00;0.00;0.62;;;;;25.70;60.60;;;;;;2263272;61;2016;-68
2021/06/26 02:36:45;0.00;0.00;0.62;0.00;0.00;0.62;;;;;25.70;60.60;;;;;;2263449;61;914;-67
2021/06/26 02:39:11;0.00;0.00;0.62;0.00;0.00;0.62;;;;;25.70;60.60;;;;;;2262785;61;1004;-67
2021/06/26 02:41:37;0.00;0.00;0.62;0.00;0.00;0.62;;;;;25.70;60.60;;;;;;2263260;61;974;-67
2021/06/26 02:44:02;0.00;0.00;0.62;0.00;0.00;0.62;;;;;25.70;60.60;;;;;;2263406;61;992;-67
2021/06/26 02:46:28;0.00;0.00;0.62;0.00;0.00;0.62;;;;;25.70;60.60;;;;;;2263619;61;938;-67
2021/06/26 02:48:53;0.00;0.00;0.62;0.00;0.00;0.62;;;;;25.70;60.60;;;;;;2263226;61;1329;-67
2021/06/26 02:51:19;0.00;0.00;0.62;0.00;0.00;0.62;;;;;25.70;60.60;;;;;;2263406;61;1032;-67
2021/06/26 02:53:45;0.00;0.00;0.62;0.00;0.00;0.62;;;;;25.70;60.60;;;;;;2263654;61;1960;-68
2021/06/26 02:56:10;0.00;0.00;0.62;0.00;0.00;0.62;;;;;25.70;60.60;;;;;;2262736;61;926;-67
2021/06/26 02:58:36;0.00;0.00;0.62;0.00;0.00;0.62;;;;;25.70;60.60;;;;;;2263563;61;991;-67
2021/06/26 03:01:01;0.00;0.00;0.62;0.00;0.00;0.62;;;;;25.70;60.60;;;;;;2263229;61;824;-67
2021/06/26 03:03:27;0.00;0.00;0.62;0.00;0.00;0.62;;;;;25.70;60.60;;;;;;2262793;61;1035;-67
2021/06/26 03:05:53;0.00;0.00;0.62;0.00;0.00;0.62;;;;;25.70;60.60;;;;;;2263250;61;936;-67
2021/06/26 03:08:18;0.00;0.00;0.62;0.00;0.00;0.62;;;;;25.70;60.60;;;;;;2263345;61;947;-67
2021/06/26 03:10:44;0.00;0.00;0.62;0.00;0.00;0.62;;;;;25.70;60.60;;;;;;2263309;61;990;-67
2021/06/26 03:13:09;0.00;0.00;0.62;0.00;0.00;0.62;;;;;25.70;60.60;;;;;;2262813;61;1913;-67
2021/06/26 03:15:35;0.00;0.00;0.62;0.00;0.00;0.62;;;;;25.70;60.60;;;;;;2263193;61;940;-68
2021/06/26 03:18:01;0.00;0.00;0.62;0.00;0.00;0.62;;;;;25.70;60.60;;;;;;2263359;61;1013;-67
2021/06/26 03:20:26;0.00;0.00;0.62;0.00;0.00;0.62;;;;;25.70;60.70;;;;;;2263095;61;822;-65
2021/06/26 03:22:52;0.00;0.00;0.62;0.00;0.00;0.62;;;;;25.70;60.60;;;;;;2263251;61;971;-66
2021/06/26 03:25:18;0.00;0.00;0.62;0.00;0.00;0.62;;;;;25.70;60.70;;;;;;2263279;61;841;-65
2021/06/26 03:27:43;0.00;0.00;0.62;0.00;0.00;0.62;;;;;25.70;60.60;;;;;;2263253;61;953;-65
2021/06/26 03:30:09;0.00;0.00;0.62;0.00;0.00;0.62;;;;;25.70;60.60;;;;;;2262569;61;910;-65
2021/06/26 03:32:35;0.00;0.00;0.62;0.00;0.00;0.62;;;;;25.70;60.60;;;;;;2263359;61;840;-66
2021/06/26 03:35:01;0.00;0.00;0.62;0.00;0.00;0.62;;;;;25.70;60.60;;;;;;2263255;61;1966;-65
2021/06/26 03:37:26;6600.00;0.02;12.06;0.00;0.00;0.62;;;;;25.70;60.60;;;;;;2263161;61;971;-65
2021/06/26 03:39:52;0.00;0.00;0.62;0.00;0.00;0.62;;;;;25.70;60.70;;;;;;2262681;61;1014;-65
2021/06/26 03:42:18;0.00;0.00;0.62;0.00;0.00;0.62;;;;;25.70;60.60;;;;;;2263010;61;956;-65
2021/06/26 03:44:43;165425.00;0.55;286.39;97630.00;0.33;169.48;;;;;25.70;60.60;;;;;;2263041;61;910;-66
2021/06/26 03:47:09;0.00;0.00;0.62;0.00;0.00;0.62;;;;;25.70;60.60;;;;;;2263241;61;1044;-66
2021/06/26 03:49:37;0.00;0.00;0.62;0.00;0.00;0.62;;;;;25.70;60.60;;;;;;2263398;61;970;-65
2021/06/26 03:52:03;0.00;0.00;0.62;0.00;0.00;0.62;;;;;25.70;60.60;;;;;;2262913;61;1275;-65
2021/06/26 03:54:29;43406.00;0.14;75.78;0.00;0.00;0.62;;;;;25.70;60.60;;;;;;2263051;61;2010;-65
2021/06/26 03:56:54;0.00;0.00;0.62;0.00;0.00;0.62;;;;;25.70;60.60;;;;;;2262538;61;836;-65
2021/06/26 03:59:20;84139.00;0.28;146.19;0.00;0.00;0.62;;;;;25.70;60.60;;;;;;2262577;61;974;-65
2021/06/26 04:01:46;0.00;0.00;0.62;0.00;0.00;0.62;;;;;25.70;60.60;;;;;;2263160;61;877;-65
2021/06/26 04:04:11;0.00;0.00;0.62;0.00;0.00;0.62;;;;;25.70;60.70;;;;;;2263228;61;1003;-65
2021/06/26 04:06:38;0.00;0.00;0.62;0.00;0.00;0.62;;;;;25.60;60.60;;;;;;2263062;61;958;-65
2021/06/26 04:09:04;0.00;0.00;0.62;0.00;0.00;0.62;;;;;25.60;60.60;;;;;;2262961;61;922;-65
2021/06/26 04:11:29;0.00;0.00;0.62;0.00;0.00;0.62;;;;;25.60;60.60;;;;;;2262350;61;895;-65
2021/06/26 04:13:55;0.00;0.00;0.62;0.00;0.00;0.62;;;;;25.60;60.60;;;;;;2262972;61;1947;-65
2021/06/26 04:16:21;0.00;0.00;0.62;0.00;0.00;0.62;;;;;25.60;60.60;;;;;;2263329;61;1031;-65
2021/06/26 04:18:46;0.00;0.00;0.62;0.00;0.00;0.62;;;;;25.60;60.60;;;;;;2263231;61;970;-65
2021/06/26 04:21:12;0.00;0.00;0.62;0.00;0.00;0.62;;;;;25.60;60.60;;;;;;2263179;61;863;-66
2021/06/26 04:23:37;0.00;0.00;0.62;0.00;0.00;0.62;;;;;25.60;60.60;;;;;;2263210;61;982;-65
2021/06/26 04:26:03;0.00;0.00;0.62;0.00;0.00;0.62;;;;;25.60;60.70;;;;;;2263147;61;906;-65
2021/06/26 04:28:29;0.00;0.00;0.62;0.00;0.00;0.62;;;;;25.60;60.60;;;;;;2262567;61;1004;-66
2021/06/26 04:30:54;0.00;0.00;0.62;0.00;0.00;0.62;;;;;25.60;60.60;;;;;;2262273;61;1140;-65
2021/06/26 04:33:20;0.00;0.00;0.62;0.00;0.00;0.62;;;;;25.60;60.60;;;;;;2262916;61;2004;-65
2021/06/26 04:35:46;0.00;0.00;0.62;0.00;0.00;0.62;;;;;25.60;60.60;;;;;;2262888;61;978;-65
2021/06/26 04:38:11;0.00;0.00;0.62;0.00;0.00;0.62;;;;;25.60;60.60;;;;;;2262957;61;949;-65
2021/06/26 04:40:37;0.00;0.00;0.62;0.00;0.00;0.62;;;;;25.60;60.60;;;;;;2262855;61;875;-65
2021/06/26 04:43:04;0.00;0.00;0.62;0.00;0.00;0.62;;;;;25.60;60.60;;;;;;2263049;61;974;-65
2021/06/26 04:45:29;0.00;0.00;0.62;0.00;0.00;0.62;;;;;25.60;60.60;;;;;;2262672;61;962;-65
2021/06/26 04:48:00;0.00;0.00;0.62;0.00;0.00;0.62;;;;;25.60;60.60;;;;;;2259143;61;930;-66
2021/06/26 04:50:25;0.00;0.00;0.62;0.00;0.00;0.62;;;;;25.60;60.60;;;;;;2263098;61;951;-65
2021/06/26 04:52:51;0.00;0.00;0.62;0.00;0.00;0.62;;;;;25.60;60.50;;;;;;2263106;61;993;-65
2021/06/26 04:55:17;0.00;0.00;0.62;0.00;0.00;0.62;;;;;25.60;60.60;;;;;;2262499;61;2029;-65
2021/06/26 04:57:42;0.00;0.00;0.62;0.00;0.00;0.62;;;;;25.60;60.60;;;;;;2263202;61;1168;-65
2021/06/26 05:00:08;0.00;0.00;0.62;0.00;0.00;0.62;;;;;25.60;60.60;;;;;;2262963;61;1177;-65
2021/06/26 05:02:34;0.00;0.00;0.62;0.00;0.00;0.62;;;;;25.60;60.50;;;;;;2262879;61;948;-65
2021/06/26 05:04:59;0.00;0.00;0.62;0.00;0.00;0.62;;;;;25.60;60.60;;;;;;2262878;61;968;-65
2021/06/26 05:07:25;0.00;0.00;0.62;0.00;0.00;0.62;;;;;25.70;60.50;;;;;;2262813;61;891;-65
2021/06/26 05:09:51;0.00;0.00;0.62;0.00;0.00;0.62;;;;;25.60;60.50;;;;;;2262751;61;966;-66
2021/06/26 05:12:16;0.00;0.00;0.62;0.00;0.00;0.62;;;;;25.60;60.50;;;;;;2263085;61;999;-65
2021/06/26 05:14:42;0.00;0.00;0.62;0.00;0.00;0.62;;;;;25.60;60.50;;;;;;2263281;61;1942;-65
2021/06/26 05:17:07;0.00;0.00;0.62;0.00;0.00;0.62;;;;;25.60;60.60;;;;;;2263732;61;1388;-65
2021/06/26 05:19:33;0.00;0.00;0.62;0.00;0.00;0.62;;;;;25.60;60.50;;;;;;2263085;61;1172;-65
2021/06/26 05:21:58;0.00;0.00;0.62;0.00;0.00;0.62;;;;;25.60;60.30;;;;;;2263707;61;879;-65
2021/06/26 05:24:24;0.00;0.00;0.62;0.00;0.00;0.62;;;;;25.60;60.50;;;;;;2263479;61;999;-65
2021/06/26 05:26:50;82018.00;0.27;142.52;0.00;0.00;0.62;;;;;25.70;60.30;;;;;;2263157;61;1012;-65
2021/06/26 05:29:15;0.00;0.00;0.62;0.00;0.00;0.62;;;;;25.60;60.50;;;;;;2263690;61;870;-65
2021/06/26 05:31:41;56398.00;0.19;98.25;0.00;0.00;0.62;;;;;25.60;60.30;;;;;;2263277;61;969;-65
2021/06/26 05:34:06;0.00;0.00;0.62;0.00;0.00;0.62;;;;;25.60;60.30;;;;;;2263631;61;1943;-65
2021/06/26 05:36:32;0.00;0.00;0.62;0.00;0.00;0.62;;;;;25.70;60.50;;;;;;2263362;61;946;-65
2021/06/26 05:39:00;0.00;0.00;0.62;0.00;0.00;0.62;;;;;25.70;60.30;;;;;;2263522;61;964;-65
2021/06/26 05:41:26;0.00;0.00;0.62;0.00;0.00;0.62;;;;;25.60;60.30;;;;;;2263345;61;1111;-65
2021/06/26 05:43:51;0.00;0.00;0.62;0.00;0.00;0.62;;;;;25.60;60.30;;;;;;2263579;61;998;-66
2021/06/26 05:46:17;0.00;0.00;0.62;0.00;0.00;0.62;;;;;25.70;60.30;;;;;;2263292;61;963;-65
2021/06/26 05:48:42;0.00;0.00;0.62;0.00;0.00;0.62;;;;;25.60;60.30;;;;;;2263731;61;1135;-66
2021/06/26 05:51:09;56859.00;0.19;99.05;0.00;0.00;0.62;;;;;25.70;60.30;;;;;;2263522;61;919;-65
2021/06/26 05:53:35;0.00;0.00;0.62;0.00;0.00;0.62;;;;;25.60;60.50;;;;;;2263560;61;2006;-65
2021/06/26 05:56:00;0.00;0.00;0.62;0.00;0.00;0.62;;;;;25.60;60.50;;;;;;2263470;61;1014;-65
2021/06/26 05:58:33;0.00;0.00;0.62;0.00;0.00;0.62;;;;;25.60;60.30;;;;;;2263478;61;955;-65
2021/06/26 06:00:59;0.00;0.00;0.62;0.00;0.00;0.62;;;;;25.70;60.30;;;;;;2262964;61;920;-65
2021/06/26 06:03:24;0.00;0.00;0.62;0.00;0.00;0.62;;;;;25.70;60.30;;;;;;2263741;61;1009;-65
2021/06/26 06:05:51;0.00;0.00;0.62;0.00;0.00;0.62;;;;;25.70;60.30;;;;;;2263831;61;1104;-65
2021/06/26 06:08:18;0.00;0.00;0.62;0.00;0.00;0.62;;;;;25.70;60.30;;;;;;2263865;61;981;-65
2021/06/26 06:10:43;0.00;0.00;0.62;0.00;0.00;0.62;;;;;25.70;60.20;;;;;;2262761;61;939;-65
2021/06/26 06:13:13;0.00;0.00;0.62;0.00;0.00;0.62;;;;;25.70;60.20;;;;;;2262973;61;1116;-65
2021/06/26 06:15:43;0.00;0.00;0.62;0.00;0.00;0.62;;;;;25.70;60.20;;;;;;2262671;61;932;-65
2021/06/26 06:18:09;0.00;0.00;0.62;0.00;0.00;0.62;;;;;25.70;60.20;;;;;;2263244;61;1059;-65
2021/06/26 06:20:35;0.00;0.00;0.62;0.00;0.00;0.62;;;;;25.70;60.20;;;;;;2263350;61;1049;-65
2021/06/26 06:23:01;0.00;0.00;0.62;0.00;0.00;0.62;;;;;25.70;60.10;;;;;;2262825;61;1042;-65
2021/06/26 06:25:26;0.00;0.00;0.62;0.00;0.00;0.62;;;;;25.70;60.10;;;;;;2263155;61;838;-65
2021/06/26 06:27:52;0.00;0.00;0.62;0.00;0.00;0.62;;;;;25.70;60.10;;;;;;2263428;61;1013;-65
2021/06/26 06:30:18;0.00;0.00;0.62;0.00;0.00;0.62;;;;;25.70;60.10;;;;;;2263302;61;1128;-65
2021/06/26 06:32:43;0.00;0.00;0.62;0.00;0.00;0.62;;;;;25.70;60.10;;;;;;2263331;61;1056;-65
2021/06/26 06:35:09;0.00;0.00;0.62;0.00;0.00;0.62;;;;;25.70;60.10;;;;;;2263254;61;1951;-65
2021/06/26 06:37:38;0.00;0.00;0.62;0.00;0.00;0.62;;;;;25.70;60.10;;;;;;2263371;61;969;-65
2021/06/26 06:40:05;0.00;0.00;0.62;0.00;0.00;0.62;;;;;25.70;60.10;;;;;;2262780;61;867;-65
2021/06/26 06:42:32;0.00;0.00;0.62;0.00;0.00;0.62;;;;;25.70;60.10;;;;;;2263206;61;851;-65
2021/06/26 06:44:57;0.00;0.00;0.62;0.00;0.00;0.62;;;;;25.70;60.10;;;;;;2262981;61;1061;-65
2021/06/26 06:47:23;0.00;0.00;0.62;0.00;0.00;0.62;;;;;25.80;60.10;;;;;;2263501;61;927;-65
2021/06/26 06:49:48;0.00;0.00;0.62;0.00;0.00;0.62;;;;;25.80;60.10;;;;;;2263228;61;842;-65
2021/06/26 06:52:14;0.00;0.00;0.62;0.00;0.00;0.62;;;;;25.80;60.10;;;;;;2263484;61;963;-65
2021/06/26 06:54:40;60219.00;0.20;104.86;0.00;0.00;0.62;;;;;25.80;60.00;;;;;;2262608;61;2014;-65
2021/06/26 06:57:06;0.00;0.00;0.62;0.00;0.00;0.62;;;;;25.80;59.80;;;;;;2263066;61;886;-65
2021/06/26 06:59:31;60414.00;0.20;105.19;0.00;0.00;0.62;;;;;25.80;59.80;;;;;;2263450;61;987;-65
2021/06/26 07:01:58;0.00;0.00;0.62;0.00;0.00;0.62;;;;;25.80;59.80;;;;;;2262800;61;908;-65
2021/06/26 07:04:24;0.00;0.00;0.62;0.00;0.00;0.62;;;;;25.90;59.80;;;;;;2263253;61;835;-65
2021/06/26 07:06:50;0.00;0.00;0.62;0.00;0.00;0.62;;;;;25.90;59.70;;;;;;2262751;61;926;-65
2021/06/26 07:09:15;0.00;0.00;0.62;0.00;0.00;0.62;;;;;25.90;59.70;;;;;;2263265;61;856;-65
2021/06/26 07:11:41;0.00;0.00;0.62;0.00;0.00;0.62;;;;;25.90;59.70;;;;;;2263110;61;920;-65
2021/06/26 07:14:07;0.00;0.00;0.62;0.00;0.00;0.62;;;;;25.90;59.70;;;;;;2263181;61;2006;-65
2021/06/26 07:16:32;0.00;0.00;0.62;0.00;0.00;0.62;;;;;25.90;59.70;;;;;;2263307;61;1055;-65
2021/06/26 07:18:58;0.00;0.00;0.62;0.00;0.00;0.62;;;;;25.90;59.70;;;;;;2263390;61;984;-65
2021/06/26 07:21:24;0.00;0.00;0.62;0.00;0.00;0.62;;;;;25.90;59.70;;;;;;2262992;61;844;-65
2021/06/26 07:23:49;0.00;0.00;0.62;0.00;0.00;0.62;;;;;25.90;59.70;;;;;;2263366;61;980;-65
2021/06/26 07:26:15;0.00;0.00;0.62;0.00;0.00;0.62;;;;;25.90;59.70;;;;;;2263226;61;895;-66
2021/06/26 07:28:40;0.00;0.00;0.62;0.00;0.00;0.62;;;;;25.90;59.70;;;;;;2263154;61;925;-65
2021/06/26 07:31:06;32129.00;0.11;56.27;0.00;0.00;0.62;;;;;25.90;59.70;;;;;;2263271;61;805;-66
2021/06/26 07:33:32;0.00;0.00;0.62;0.00;0.00;0.62;;;;;25.90;59.60;;;;;;2263222;61;2000;-65
2021/06/26 07:35:57;0.00;0.00;0.62;0.00;0.00;0.62;;;;;25.90;59.60;;;;;;2262899;61;940;-65
2021/06/26 07:38:23;60799.00;0.20;105.86;0.00;0.00;0.62;;;;;25.90;59.60;;;;;;2262558;61;968;-65
2021/06/26 07:40:49;52157.00;0.17;90.92;0.00;0.00;0.62;;;;;25.90;59.60;;;;;;2263031;61;978;-65
2021/06/26 07:43:15;0.00;0.00;0.62;0.00;0.00;0.62;;;;;25.90;59.60;;;;;;2263130;61;966;-66
2021/06/26 07:45:40;0.00;0.00;0.62;0.00;0.00;0.62;;;;;25.90;59.60;;;;;;2259296;61;957;-65
2021/06/26 07:48:06;0.00;0.00;0.62;0.00;0.00;0.62;;;;;25.90;59.60;;;;;;2259419;61;997;-65
2021/06/26 07:50:32;0.00;0.00;0.62;0.00;0.00;0.62;;;;;26.00;59.60;;;;;;2262931;61;979;-65
2021/06/26 07:52:58;0.00;0.00;0.62;0.00;0.00;0.62;;;;;26.00;59.50;;;;;;2259062;61;1515;-65
2021/06/26 07:55:23;0.00;0.00;0.62;0.00;0.00;0.62;;;;;25.90;59.50;;;;;;2263158;61;1960;-66
2021/06/26 07:57:49;0.00;0.00;0.62;0.00;0.00;0.62;;;;;26.00;59.50;;;;;;2263077;61;977;-66
2021/06/26 08:00:15;0.00;0.00;0.62;0.00;0.00;0.62;;;;;25.90;59.60;;;;;;2263249;61;883;-66
2021/06/26 08:02:40;0.00;0.00;0.62;0.00;0.00;0.62;;;;;25.90;59.60;;;;;;2263069;61;1123;-66
2021/06/26 08:05:06;0.00;0.00;0.62;0.00;0.00;0.62;;;;;25.90;59.60;;;;;;2262552;61;963;-66
2021/06/26 08:07:32;0.00;0.00;0.62;0.00;0.00;0.62;;;;;25.90;59.70;;;;;;2263232;61;1102;-66
2021/06/26 08:09:58;0.00;0.00;0.62;0.00;0.00;0.62;;;;;25.80;59.70;;;;;;2262885;61;1231;-66
2021/06/26 08:12:23;37672.00;0.13;65.86;0.00;0.00;0.62;;;;;25.90;59.70;;;;;;2263270;61;984;-66
2021/06/26 08:14:49;0.00;0.00;0.62;0.00;0.00;0.62;;;;;25.80;59.70;;;;;;2262543;61;1951;-66
2021/06/26 08:17:15;212293.00;0.71;367.08;0.00;0.00;0.62;;;;;25.90;59.70;;;;;;2263061;61;1244;-67
2021/06/26 08:19:41;43045.00;0.14;75.16;0.00;0.00;0.62;;;;;25.80;59.70;;;;;;2262746;61;939;-66
2021/06/26 08:22:07;0.00;0.00;0.62;0.00;0.00;0.62;;;;;25.80;59.70;;;;;;2263131;61;907;-66
2021/06/26 08:24:33;0.00;0.00;0.62;0.00;0.00;0.62;;;;;25.80;59.70;;;;;;2262938;61;1369;-67
2021/06/26 08:26:59;0.00;0.00;0.62;0.00;0.00;0.62;;;;;25.80;59.70;;;;;;2262822;61;911;-66
2021/06/26 08:29:25;41551.00;0.14;72.57;0.00;0.00;0.62;;;;;25.80;59.80;;;;;;2262501;61;984;-66
2021/06/26 08:31:50;0.00;0.00;0.62;0.00;0.00;0.62;;;;;25.80;59.70;;;;;;2263171;61;871;-66
2021/06/26 08:34:16;0.00;0.00;0.62;0.00;0.00;0.62;;;;;25.80;59.80;;;;;;2263256;61;2016;-66
2021/06/26 08:36:42;0.00;0.00;0.62;0.00;0.00;0.62;;;;;25.80;59.70;;;;;;2262602;61;1176;-66
2021/06/26 08:39:07;0.00;0.00;0.62;0.00;0.00;0.62;;;;;25.80;59.70;;;;;;2262634;61;904;-66
2021/06/26 08:41:38;0.00;0.00;0.62;0.00;0.00;0.62;;;;;25.80;59.80;;;;;;2259435;61;1072;-66
2021/06/26 08:44:05;47948.00;0.16;83.64;0.00;0.00;0.62;;;;;25.80;59.70;;;;;;2263415;61;901;-67
2021/06/26 08:46:31;0.00;0.00;0.62;0.00;0.00;0.62;;;;;25.80;59.70;;;;;;2262665;61;938;-66
2021/06/26 08:48:57;0.00;0.00;0.62;0.00;0.00;0.62;;;;;25.80;59.70;;;;;;2262742;61;936;-66
2021/06/26 08:51:23;0.00;0.00;0.62;0.00;0.00;0.62;;;;;25.80;59.70;;;;;;2262526;61;925;-67
2021/06/26 08:53:48;0.00;0.00;0.62;0.00;0.00;0.62;;;;;25.80;59.70;;;;;;2263350;61;1934;-66
2021/06/26 08:56:14;0.00;0.00;0.62;0.00;0.00;0.62;;;;;25.80;59.70;;;;;;2263005;61;1180;-67
2021/06/26 08:58:39;0.00;0.00;0.62;0.00;0.00;0.62;;;;;25.80;59.70;;;;;;2264041;61;1228;-66
2021/06/26 09:01:05;0.00;0.00;0.62;0.00;0.00;0.62;;;;;25.80;59.70;;;;;;2263631;61;1105;-66
2021/06/26 09:03:31;0.00;0.00;0.62;0.00;0.00;0.62;;;;;25.80;59.70;;;;;;2263126;61;951;-66
2021/06/26 09:06:02;0.00;0.00;0.62;0.00;0.00;0.62;;;;;25.80;59.70;;;;;;2262898;61;1028;-66
2021/06/26 09:08:28;0.00;0.00;0.62;0.00;0.00;0.62;;;;;25.80;59.70;;;;;;2259093;61;994;-67
2021/06/26 09:10:53;0.00;0.00;0.62;0.00;0.00;0.62;;;;;25.80;59.70;;;;;;2262939;61;1176;-66
2021/06/26 09:13:26;0.00;0.00;0.62;0.00;0.00;0.62;;;;;25.80;59.70;;;;;;2262707;61;838;-66
2021/06/26 09:16:11;0.00;0.00;0.62;0.00;0.00;0.62;;;;;25.80;59.70;;;;;;2259448;61;1692;-66
2021/06/26 09:18:43;0.00;0.00;0.62;0.00;0.00;0.62;;;;;25.80;59.70;;;;;;2263291;61;1023;-66
2021/06/26 09:21:31;0.00;0.00;0.62;0.00;0.00;0.62;;;;;25.80;59.60;;;;;;2263156;61;879;-66
2021/06/26 09:24:05;0.00;0.00;0.62;0.00;0.00;0.62;;;;;25.80;59.70;;;;;;2262952;61;816;-66
2021/06/26 09:26:32;0.00;0.00;0.62;0.00;0.00;0.62;;;;;25.80;59.70;;;;;;2262875;61;879;-67
2021/06/26 09:29:15;0.00;0.00;0.62;0.00;0.00;0.62;;;;;25.80;59.70;;;;;;2262325;61;962;-66
2021/06/26 09:31:57;0.00;0.00;0.62;0.00;0.00;0.62;;;;;25.90;59.60;;;;;;2263142;61;982;-67
2021/06/26 09:34:24;0.00;0.00;0.62;0.00;0.00;0.62;;;;;25.80;59.60;;;;;;2263014;61;1951;-67
2021/06/26 09:37:02;0.00;0.00;0.62;0.00;0.00;0.62;;;;;25.80;59.70;;;;;;2263308;61;1946;-66
2021/06/26 09:39:38;42683.00;0.14;74.53;0.00;0.00;0.62;;;;;25.80;59.60;;;;;;2263283;61;883;-67
2021/06/26 09:42:30;37200.00;0.12;65.04;0.00;0.00;0.62;;;;;25.90;59.60;;;;;;2262771;61;931;-67
2021/06/26 09:45:00;0.00;0.00;0.62;0.00;0.00;0.62;;;;;25.80;59.60;;;;;;2262339;61;890;-67
2021/06/26 09:47:43;0.00;0.00;0.62;0.00;0.00;0.62;;;;;25.80;59.60;;;;;;2262881;61;860;-66
2021/06/26 09:50:19;0.00;0.00;0.62;0.00;0.00;0.62;;;;;25.80;59.60;;;;;;2262655;61;997;-67
2021/06/26 09:52:50;0.00;0.00;0.62;0.00;0.00;0.62;;;;;25.80;59.60;;;;;;2262383;61;851;-68
2021/06/26 09:55:23;0.00;0.00;0.62;0.00;0.00;0.62;;;;;25.80;59.60;;;;;;2262862;61;1951;-67
2021/06/26 09:57:49;0.00;0.00;0.62;0.00;0.00;0.62;;;;;25.80;59.60;;;;;;2262626;61;994;-67
2021/06/26 10:00:16;0.00;0.00;0.62;0.00;0.00;0.62;;;;;25.80;59.60;;;;;;2263769;61;1155;-67
2021/06/26 10:02:43;0.00;0.00;0.62;0.00;0.00;0.62;;;;;25.80;59.70;;;;;;2263250;61;1002;-67
2021/06/26 10:05:09;0.00;0.00;0.62;0.00;0.00;0.62;;;;;25.80;59.70;;;;;;2263366;61;974;-67
2021/06/26 10:07:35;0.00;0.00;0.62;0.00;0.00;0.62;;;;;25.80;59.60;;;;;;2259658;61;1870;-67
2021/06/26 10:10:01;0.00;0.00;0.62;0.00;0.00;0.62;;;;;25.80;59.60;;;;;;2262852;61;945;-67
2021/06/26 10:12:27;0.00;0.00;0.62;0.00;0.00;0.62;;;;;25.80;59.60;;;;;;2263585;61;1170;-67
2021/06/26 10:14:56;0.00;0.00;0.62;0.00;0.00;0.62;;;;;25.80;59.60;;;;;;2264116;61;2024;-66
2021/06/26 10:17:21;31528.00;0.11;55.23;0.00;0.00;0.62;;;;;25.80;59.70;;;;;;2262205;55;3827;-69
2021/06/26 10:19:49;0.00;0.00;0.62;0.00;0.00;0.62;;;;;25.80;59.60;;;;;;2263789;61;978;-69
2021/06/26 10:22:14;0.00;0.00;0.62;0.00;0.00;0.62;;;;;25.90;59.60;;;;;;2263645;61;1052;-69
2021/06/26 10:24:41;0.00;0.00;0.62;0.00;0.00;0.62;;;;;25.90;59.60;;;;;;2263748;61;978;-69
2021/06/26 10:27:15;0.00;0.00;0.62;0.00;0.00;0.62;;;;;25.80;59.60;;;;;;2263012;61;1136;-69
2021/06/26 10:29:41;0.00;0.00;0.62;0.00;0.00;0.62;;;;;25.80;59.60;;;;;;2263593;61;983;-69
2021/06/26 10:32:11;0.00;0.00;0.62;0.00;0.00;0.62;;;;;25.80;59.60;;;;;;2263006;61;987;-69
2021/06/26 10:34:54;0.00;0.00;0.62;0.00;0.00;0.62;;;;;25.80;59.60;;;;;;2263819;61;2021;-69
2021/06/26 10:37:21;0.00;0.00;0.62;0.00;0.00;0.62;;;;;25.90;59.60;;;;;;2263765;61;1113;-69